首页
METAR-TAF:

METAR-TAF

机场 :

Northeast Alabama Regional Airport

加兹登, 阿拉巴马州, 美国

纬度: 33-58N, 经度: 086-05W, 海拔: 173米

当前天气观测

该预报发布于47分钟前的23:56 UTC
风速5节,风向
温度 19°C
湿度 100%
气压 1014 hPa
能見度: 16.1公里
少量云层高于700英尺
散云层高于1100英尺
阴天层高于2900英尺

METAR: KGAD 152356Z AUTO 09005KT 10SM FEW007 SCT011 OVC029 19/19 A2993 RMK AO2 SLP135 60003 T01940189 10211 20194 56016

时间: 19:43 (00:43 UTC)


TAF: 丢失

超过4000个机场的气象观测和天气预报(METAR&TAF报告)。

可查询的气象台以黄色和红色小点在地图上表示。

将鼠标移到小点上方,可查看气象台名称。

然后点击查看天气观测和预报。

如需切换地图:点击带黑十字的绿色按钮放大地图;点击带横线的绿色按钮缩小地图;或者点击绿色箭头查看邻近地区的地图。


METAR-TAF: